Time;durP1;ratioP1;P1;durP2;ratioP2;P2;SDS_P1;SDS_P2;PMS_P1;PMS_P2;Temp;Humidity;BMP_temperature;BMP_pressure;BME280_temperature;BME280_humidity;BME280_pressure;Samples;Min_cycle;Max_cycle;Signal;HPM_P1;HPM_P2
2022/05/26 00:02:32;;;;;;;7.25;3.22;;;;;;;13.88;91.33;100066.69;4192984;34;33995;-78
2022/05/26 00:05:19;;;;;;;5.68;3.20;;;;;;;13.56;91.98;100061.63;4184416;34;35693;-78
2022/05/26 00:08:06;;;;;;;5.70;2.90;;;;;;;13.74;91.88;100071.53;4183823;34;36034;-78
2022/05/26 00:10:54;;;;;;;5.10;3.05;;;;;;;13.64;91.44;100077.37;4192577;34;33845;-78
2022/05/26 00:13:41;;;;;;;6.28;3.30;;;;;;;13.58;92.51;100078.66;4182659;34;34385;-78
2022/05/26 00:16:27;;;;;;;4.45;2.78;;;;;;;13.44;93.18;100074.06;4193310;34;36175;-78
2022/05/26 00:19:15;;;;;;;5.47;2.65;;;;;;;13.79;91.99;100079.66;4185125;34;35709;-78
2022/05/26 00:22:02;;;;;;;7.62;3.30;;;;;;;13.99;90.17;100082.94;4183077;34;34997;-78
2022/05/26 00:24:48;;;;;;;5.28;3.25;;;;;;;13.61;90.47;100087.09;4184585;34;33917;-78
2022/05/26 00:27:34;;;;;;;6.28;3.42;;;;;;;13.66;91.09;100086.09;4184800;34;34642;-78
2022/05/26 00:30:21;;;;;;;7.30;3.42;;;;;;;13.42;91.29;100089.28;4192538;34;35968;-78
2022/05/26 00:33:08;;;;;;;5.32;3.25;;;;;;;13.27;92.90;100093.28;4193888;34;36313;-78
2022/05/26 00:35:54;;;;;;;6.18;2.92;;;;;;;13.15;94.28;100085.59;4192699;34;34273;-78
2022/05/26 00:38:41;;;;;;;7.07;3.40;;;;;;;13.54;91.23;100088.66;4191478;34;35118;-78
2022/05/26 00:41:28;;;;;;;4.95;3.35;;;;;;;13.54;90.65;100096.94;4183602;34;34806;-78
2022/05/26 00:44:15;;;;;;;7.18;3.58;;;;;;;13.57;90.86;100105.34;4184288;34;34882;-78
2022/05/26 00:47:10;;;;;;;5.50;3.50;;;;;;;13.65;89.71;100104.56;4182515;34;34374;-78
2022/05/26 00:50:01;;;;;;;6.00;3.58;;;;;;;13.42;90.59;100098.34;4183422;34;34670;-78
2022/05/26 00:52:51;;;;;;;6.93;3.30;;;;;;;13.11;93.11;100108.56;4173785;34;35917;-78
2022/05/26 00:55:45;;;;;;;5.87;3.87;;;;;;;13.54;89.48;100105.19;4182186;34;34471;-78
2022/05/26 00:58:37;;;;;;;7.62;3.85;;;;;;;13.09;91.95;100105.31;4183552;34;35338;-78
2022/05/26 01:01:29;;;;;;;6.43;3.70;;;;;;;12.98;93.84;100111.09;4191973;34;34085;-78
2022/05/26 01:04:19;;;;;;;5.57;3.80;;;;;;;13.08;92.50;100107.25;4179765;34;35711;-78
2022/05/26 01:07:14;;;;;;;6.00;3.80;;;;;;;13.15;90.28;100115.03;4183968;34;35871;-78
2022/05/26 01:10:01;;;;;;;6.75;3.22;;;;;;;13.30;89.38;100111.91;4184199;34;34453;-78
2022/05/26 01:12:47;;;;;;;6.00;3.72;;;;;;;13.43;88.58;100127.50;4174631;34;35579;-78
2022/05/26 01:15:36;;;;;;;4.72;3.25;;;;;;;13.48;89.10;100119.09;4182340;34;34593;-78
2022/05/26 01:18:56;;;;;;;6.28;3.70;;;;;;;13.30;89.74;100125.69;4183345;34;36253;-78
2022/05/26 01:21:54;;;;;;;6.43;3.97;;;;;;;13.68;87.96;100123.19;4183373;34;34375;-78
2022/05/26 01:24:56;;;;;;;5.87;3.42;;;;;;;13.23;89.33;100117.84;4185788;34;34684;-78
2022/05/26 01:27:44;;;;;;;7.35;4.82;;;;;;;13.38;87.85;100119.41;4174410;34;35005;-78
2022/05/26 01:30:42;;;;;;;6.00;3.28;;;;;;;12.78;90.87;100109.69;4184462;34;34588;-78
2022/05/26 01:33:49;;;;;;;6.37;3.53;;;;;;;12.33;96.05;100112.44;4193438;34;34289;-77
2022/05/26 01:36:39;;;;;;;6.00;3.45;;;;;;;12.55;93.35;100106.13;4194611;34;36484;-78
2022/05/26 01:39:58;;;;;;;5.47;3.55;;;;;;;12.26;95.88;100111.22;4183710;34;35040;-78
2022/05/26 01:43:00;;;;;;;6.75;3.20;;;;;;;12.45;93.90;100125.63;4185783;34;36194;-77
2022/05/26 01:45:51;;;;;;;;;;;;;;;12.40;93.33;100114.72;4185423;34;35366;-77
2022/05/26 01:48:43;;;;;;;6.53;3.40;;;;;;;12.50;92.21;100122.75;4193983;34;35944;-78
2022/05/26 01:51:52;;;;;;;6.25;3.47;;;;;;;12.64;90.95;100127.38;4184641;34;35699;-77
2022/05/26 01:54:40;;;;;;;5.50;3.42;;;;;;;12.33;92.72;100128.91;4185517;34;34964;-78
2022/05/26 01:57:35;;;;;;;6.32;3.67;;;;;;;12.83;90.65;100128.81;4191294;34;35329;-78
2022/05/26 02:00:22;;;;;;;5.60;3.50;;;;;;;13.02;89.16;100144.28;4191968;34;34714;-78
2022/05/26 02:03:18;;;;;;;8.70;3.78;;;;;;;12.90;89.28;100147.59;4193674;34;36243;-78
2022/05/26 02:06:13;;;;;;;6.97;4.20;;;;;;;12.68;90.81;100148.41;4193252;34;34595;-78
2022/05/26 02:09:06;;;;;;;5.75;3.70;;;;;;;12.88;91.93;100143.53;4193435;34;34276;-78
2022/05/26 02:12:36;;;;;;;7.20;4.45;;;;;;;12.87;92.21;100153.72;4185362;34;33520;-78
2022/05/26 02:15:27;;;;;;;8.07;4.85;;;;;;;12.54;92.45;100155.91;4184071;34;34890;-78
2022/05/26 02:18:25;;;;;;;7.72;4.62;;;;;;;12.33;93.80;100155.59;4194905;34;34409;-78
2022/05/26 02:21:19;;;;;;;8.07;4.85;;;;;;;12.42;95.35;100158.41;4193397;34;34345;-78
2022/05/26 02:24:12;;;;;;;7.68;4.95;;;;;;;12.06;95.98;100172.94;4192302;34;35290;-78
2022/05/26 02:26:59;;;;;;;7.25;5.18;;;;;;;12.25;95.54;100170.06;4192353;34;34966;-77
2022/05/26 02:29:53;;;;;;;7.70;4.75;;;;;;;12.06;96.58;100176.50;4185314;34;36168;-78
2022/05/26 02:32:51;;;;;;;7.55;5.22;;;;;;;11.95;97.15;100169.59;4173923;34;34424;-76
2022/05/26 02:35:40;;;;;;;8.98;5.20;;;;;;;11.99;97.84;100176.09;4185043;34;34626;-77
2022/05/26 02:38:27;;;;;;;7.82;5.37;;;;;;;11.95;97.60;100177.81;4185381;34;35007;-77
2022/05/26 02:41:13;;;;;;;8.75;6.18;;;;;;;11.65;100.00;100173.75;4185040;34;34503;-77
2022/05/26 02:44:00;;;;;;;10.43;7.35;;;;;;;11.30;100.00;100172.50;4175610;34;35168;-78
2022/05/26 02:46:55;;;;;;;12.30;7.55;;;;;;;11.15;100.00;100174.41;4184884;34;34362;-77
2022/05/26 02:49:59;;;;;;;11.25;7.75;;;;;;;11.04;100.00;100181.19;4192269;34;34965;-77
2022/05/26 02:52:51;;;;;;;11.73;7.28;;;;;;;11.17;100.00;100180.41;4184788;34;34559;-77
2022/05/26 02:56:25;;;;;;;12.25;7.65;;;;;;;11.47;100.00;100172.75;4194361;34;34821;-77
2022/05/26 02:59:33;;;;;;;10.90;7.82;;;;;;;11.13;100.00;100184.88;4181863;34;34601;-77
2022/05/26 03:02:41;;;;;;;10.27;7.82;;;;;;;11.39;100.00;100176.19;4184303;34;34950;-77
2022/05/26 03:05:44;;;;;;;11.10;7.43;;;;;;;11.13;100.00;100170.34;4193324;34;34858;-77
2022/05/26 03:08:33;;;;;;;11.07;7.60;;;;;;;10.91;100.00;100173.75;4182343;34;33993;-77
2022/05/26 03:11:22;;;;;;;11.85;7.60;;;;;;;11.20;100.00;100182.53;4183868;34;35190;-78
2022/05/26 03:14:08;;;;;;;10.20;6.95;;;;;;;11.45;100.00;100184.00;4184951;34;34813;-78
2022/05/26 03:16:55;;;;;;;10.10;6.70;;;;;;;11.46;100.00;100187.56;4184742;34;34985;-78
2022/05/26 03:19:41;;;;;;;9.98;6.90;;;;;;;11.16;100.00;100187.03;4184149;34;34396;-78
2022/05/26 03:22:28;;;;;;;10.85;6.90;;;;;;;11.18;100.00;100195.75;4183124;34;35769;-77
2022/05/26 03:25:14;;;;;;;9.32;6.10;;;;;;;11.20;100.00;100196.25;4183796;34;34752;-78
2022/05/26 03:28:00;;;;;;;9.55;6.50;;;;;;;11.42;100.00;100198.34;4181862;34;34854;-78
2022/05/26 03:30:46;;;;;;;8.52;6.37;;;;;;;11.36;100.00;100215.22;4193294;34;34193;-77
2022/05/26 03:40:46;;;;;;;8.10;6.20;;;;;;;11.31;100.00;100224.34;4185350;34;34329;-77
2022/05/26 03:42:49;;;;;;;10.77;7.20;;;;;;;11.50;100.00;100218.78;4191578;34;34371;-78
2022/05/26 03:45:36;;;;;;;10.40;6.75;;;;;;;11.46;100.00;100225.97;4182346;34;34498;-77
2022/05/26 03:48:23;;;;;;;10.93;7.07;;;;;;;11.65;100.00;100234.94;4193718;34;34575;-77
2022/05/26 03:51:09;;;;;;;10.02;7.32;;;;;;;11.68;100.00;100234.34;4184278;34;34840;-77
2022/05/26 03:53:56;;;;;;;12.10;7.72;;;;;;;11.60;100.00;100232.28;4184064;34;34181;-77
2022/05/26 03:56:42;;;;;;;12.37;7.35;;;;;;;11.92;100.00;100230.63;4184963;34;33604;-76
2022/05/26 03:59:28;;;;;;;9.50;7.18;;;;;;;12.06;99.77;100239.66;4182067;34;35478;-76
2022/05/26 04:02:14;;;;;;;10.20;7.30;;;;;;;11.65;100.00;100229.47;4183184;34;34564;-76
2022/05/26 04:05:00;;;;;;;10.60;7.87;;;;;;;11.63;100.00;100231.69;4182640;34;35412;-75
2022/05/26 04:07:47;;;;;;;10.63;8.55;;;;;;;11.78;100.00;100232.50;4185584;34;35106;-75
2022/05/26 04:10:34;;;;;;;11.75;7.82;;;;;;;11.62;100.00;100252.03;4191126;34;33866;-76
2022/05/26 04:13:20;;;;;;;12.23;8.23;;;;;;;11.77;100.00;100252.84;4192314;34;34866;-76
2022/05/26 04:16:12;;;;;;;11.10;7.82;;;;;;;12.14;100.00;100260.91;4183078;34;34436;-76
2022/05/26 04:18:58;;;;;;;11.63;7.90;;;;;;;12.45;99.37;100260.28;4190103;34;34721;-76
2022/05/26 04:24:54;;;;;;;10.77;7.70;;;;;;;12.45;98.56;100264.97;4183850;34;34984;-76
2022/05/26 04:27:41;;;;;;;13.37;7.47;;;;;;;12.56;98.67;100272.69;4194026;34;35321;-75
2022/05/26 04:30:27;;;;;;;9.95;7.28;;;;;;;12.43;97.29;100270.75;4183150;34;35417;-75
2022/05/26 04:33:13;;;;;;;9.20;6.80;;;;;;;12.54;96.69;100274.91;4184434;34;34696;-76
2022/05/26 04:36:04;;;;;;;8.77;6.50;;;;;;;12.59;97.73;100276.75;4182837;34;35871;-76
2022/05/26 04:38:50;;;;;;;9.27;6.77;;;;;;;12.99;94.96;100277.75;4192274;34;35352;-76
2022/05/26 04:41:37;;;;;;;8.68;6.18;;;;;;;12.51;97.97;100283.78;4191323;34;35146;-76
2022/05/26 04:44:24;;;;;;;8.65;6.55;;;;;;;13.01;95.35;100278.25;4185409;34;35030;-76
2022/05/26 04:47:11;;;;;;;8.48;5.87;;;;;;;13.36;93.59;100283.22;4185549;34;34852;-76
2022/05/26 04:49:58;;;;;;;8.52;6.72;;;;;;;13.37;92.82;100280.16;4183661;34;34045;-76
2022/05/26 04:52:44;;;;;;;9.98;6.05;;;;;;;13.07;93.90;100286.41;4183997;34;35024;-76
2022/05/26 04:55:31;;;;;;;9.15;5.93;;;;;;;13.41;92.38;100283.91;4182374;34;36085;-76
2022/05/26 04:58:17;;;;;;;10.27;6.00;;;;;;;13.29;93.30;100291.94;4184079;34;35351;-76
2022/05/26 05:01:14;;;;;;;7.95;5.37;;;;;;;13.61;90.38;100287.28;4183485;34;35271;-76
2022/05/26 05:04:00;;;;;;;10.00;6.18;;;;;;;13.41;90.97;100299.62;4183324;34;35561;-75
2022/05/26 05:06:47;;;;;;;8.15;5.20;;;;;;;13.32;91.25;100302.31;4180203;34;35059;-75
2022/05/26 05:09:33;;;;;;;8.65;5.62;;;;;;;13.61;90.11;100310.09;4181397;34;34477;-75
2022/05/26 05:12:21;;;;;;;8.68;4.95;;;;;;;13.87;89.36;100307.50;4181391;34;34479;-75
2022/05/26 05:15:13;;;;;;;10.10;5.20;;;;;;;14.28;85.72;100300.03;4190809;34;34198;-76
2022/05/26 05:17:59;;;;;;;;;;;;;;;14.41;85.84;100299.09;4189073;34;34712;-76
2022/05/26 05:20:46;;;;;;;7.25;4.65;;;;;;;14.42;84.62;100310.94;4191602;34;34804;-75
2022/05/26 05:23:33;;;;;;;7.50;4.75;;;;;;;14.70;83.73;100314.28;4194104;34;34934;-71
2022/05/26 05:26:21;;;;;;;7.15;4.03;;;;;;;14.34;85.12;100316.13;4189679;34;35577;-72
2022/05/26 05:29:12;;;;;;;7.40;4.78;;;;;;;14.75;82.07;100325.16;4190913;34;34963;-71
2022/05/26 05:32:03;;;;;;;7.18;4.62;;;;;;;15.00;81.39;100326.31;4189898;34;34867;-72
2022/05/26 05:34:56;;;;;;;6.70;4.78;;;;;;;14.59;83.62;100327.56;4190969;34;34399;-72
2022/05/26 05:37:42;;;;;;;;;;;;;;;14.98;82.65;100331.34;4190053;34;35696;-71
2022/05/26 05:40:28;;;;;;;6.55;4.43;;;;;;;15.23;79.40;100335.25;4190787;34;36215;-71
2022/05/26 05:43:18;;;;;;;6.05;4.12;;;;;;;14.79;80.87;100337.97;4199257;34;34831;-72
2022/05/26 05:46:06;;;;;;;6.97;3.92;;;;;;;15.22;80.49;100350.19;4199127;34;34371;-71
2022/05/26 05:48:52;;;;;;;6.60;3.42;;;;;;;15.32;78.47;100340.78;4189900;34;34703;-72
2022/05/26 05:51:38;;;;;;;5.00;3.00;;;;;;;15.70;77.00;100341.72;4199278;34;35042;-71
2022/05/26 05:54:25;;;;;;;7.10;3.03;;;;;;;15.25;77.24;100350.38;4190457;34;35071;-71
2022/05/26 05:57:12;;;;;;;5.55;2.85;;;;;;;15.49;75.29;100346.28;4190486;34;35372;-71
2022/05/26 05:59:58;;;;;;;3.83;2.70;;;;;;;15.52;76.35;100340.91;4190630;34;34619;-71
2022/05/26 06:02:44;;;;;;;5.25;3.17;;;;;;;15.60;75.02;100350.34;4190520;34;35093;-70
2022/05/26 06:05:31;;;;;;;4.35;2.72;;;;;;;15.50;73.84;100340.41;4191337;34;34998;-71
2022/05/26 06:08:17;;;;;;;6.40;2.62;;;;;;;15.82;74.18;100345.75;4201292;34;35231;-71
2022/05/26 06:11:04;;;;;;;2.60;1.98;;;;;;;15.72;73.84;100347.72;4192392;34;35683;-72
2022/05/26 06:13:50;;;;;;;3.50;2.05;;;;;;;16.26;71.87;100343.66;4192451;34;36034;-71
2022/05/26 06:16:37;;;;;;;5.40;2.20;;;;;;;16.84;70.08;100342.88;4181886;34;35745;-71
2022/05/26 06:19:23;;;;;;;4.07;2.00;;;;;;;16.34;72.39;100353.88;4200978;34;34509;-71
2022/05/26 06:22:14;;;;;;;2.97;1.50;;;;;;;16.32;71.53;100361.69;4187119;34;34857;-71
2022/05/26 06:25:02;;;;;;;2.42;1.70;;;;;;;16.38;68.92;100363.94;4177778;34;34984;-71
2022/05/26 06:30:54;;;;;;;3.87;1.95;;;;;;;16.62;68.51;100368.87;4192325;34;34436;-70
2022/05/26 06:40:08;;;;;;;5.55;1.58;;;;;;;16.96;68.10;100392.00;4183955;34;34811;-71
2022/05/26 06:42:55;;;;;;;4.32;2.05;;;;;;;16.77;68.07;100391.62;4191312;34;35324;-71
2022/05/26 06:45:42;;;;;;;2.10;1.20;;;;;;;16.76;68.73;100401.00;4200629;34;34732;-71
2022/05/26 06:48:28;;;;;;;3.80;1.58;;;;;;;17.21;68.32;100397.66;4200935;34;34915;-71
2022/05/26 06:51:16;;;;;;;2.12;1.62;;;;;;;17.49;68.52;100392.41;4200782;34;34850;-71
2022/05/26 06:54:04;;;;;;;2.30;1.70;;;;;;;17.64;69.51;100390.94;4192156;34;35240;-71
2022/05/26 06:56:50;;;;;;;3.45;2.20;;;;;;;17.82;68.19;100386.09;4200698;34;33891;-71
2022/05/26 06:59:37;;;;;;;4.72;2.10;;;;;;;18.24;67.26;100385.94;4191941;34;35094;-71
2022/05/26 07:02:24;;;;;;;3.65;1.73;;;;;;;18.25;67.18;100379.28;4191175;34;34922;-72
2022/05/26 07:05:11;;;;;;;3.55;1.67;;;;;;;18.56;67.29;100385.06;4192076;34;35272;-71
2022/05/26 07:07:58;;;;;;;4.03;1.58;;;;;;;18.39;67.89;100377.78;4191137;34;35676;-72
2022/05/26 07:10:46;;;;;;;2.92;1.90;;;;;;;18.38;65.74;100370.59;4192304;34;35977;-72
2022/05/26 07:13:32;;;;;;;3.08;1.80;;;;;;;18.71;64.81;100372.44;4191244;34;35767;-70
2022/05/26 07:16:18;;;;;;;2.92;1.60;;;;;;;18.43;66.62;100381.47;4191485;34;35235;-70
2022/05/26 07:19:05;;;;;;;3.03;1.90;;;;;;;18.92;66.08;100379.87;4191831;34;34668;-70
2022/05/26 07:21:51;;;;;;;2.97;1.85;;;;;;;18.64;65.66;100386.09;4177206;34;34996;-77
2022/05/26 07:24:38;;;;;;;2.50;1.48;;;;;;;19.27;64.32;100380.97;4187665;34;34553;-77
2022/05/26 07:27:24;;;;;;;4.80;2.00;;;;;;;18.93;63.23;100396.19;4196370;34;33263;-78
2022/05/26 07:30:11;;;;;;;4.78;1.62;;;;;;;19.35;64.24;100383.94;4188617;34;35572;-77
2022/05/26 07:32:58;;;;;;;3.22;1.60;;;;;;;19.27;62.58;100397.63;4186068;34;35465;-83
2022/05/26 07:35:44;;;;;;;3.05;1.83;;;;;;;19.08;62.97;100391.88;4186574;34;35512;-85
2022/05/26 07:41:36;;;;;;;2.25;1.23;;;;;;;19.55;63.95;100397.66;4186724;34;34108;-84
2022/05/26 07:44:22;;;;;;;3.67;1.73;;;;;;;19.58;61.35;100392.53;4186734;34;34901;-84
2022/05/26 07:47:09;;;;;;;4.55;1.65;;;;;;;19.05;62.42;100404.50;4185877;34;34926;-86
2022/05/26 07:49:55;;;;;;;2.12;1.37;;;;;;;19.18;62.04;100396.97;4186244;34;33991;-84
2022/05/26 07:52:42;;;;;;;4.25;1.60;;;;;;;19.67;61.61;100404.38;4186289;34;34718;-84
2022/05/26 07:55:29;;;;;;;3.80;1.60;;;;;;;19.96;60.77;100408.75;4186712;34;36042;-84
2022/05/26 07:58:15;;;;;;;4.22;1.60;;;;;;;19.48;62.99;100404.97;4194793;34;34917;-82
2022/05/26 08:01:03;;;;;;;6.45;1.65;;;;;;;18.54;64.36;100408.78;4192409;34;34193;-78
2022/05/26 08:03:53;;;;;;;4.22;1.65;;;;;;;19.21;63.99;100412.94;4185374;34;34719;-79
2022/05/26 08:06:39;;;;;;;5.30;1.40;;;;;;;19.29;62.92;100414.75;4185662;34;34985;-79
2022/05/26 08:09:30;;;;;;;2.97;1.55;;;;;;;19.87;62.05;100410.88;4186748;34;34931;-79
2022/05/26 08:12:16;;;;;;;3.30;1.33;;;;;;;20.13;60.36;100408.41;4186224;34;33957;-78
2022/05/26 08:15:04;;;;;;;3.42;1.40;;;;;;;20.18;59.17;100410.13;4186028;34;34314;-78
2022/05/26 08:17:50;;;;;;;1.95;1.23;;;;;;;20.08;58.82;100403.09;4186080;34;35079;-78
2022/05/26 08:20:37;;;;;;;5.22;1.10;;;;;;;19.95;59.63;100405.16;4194345;34;34537;-78
2022/05/26 08:23:25;;;;;;;2.65;1.17;;;;;;;20.14;56.89;100407.25;4186899;34;34810;-79
2022/05/26 08:26:12;;;;;;;1.92;0.98;;;;;;;20.38;57.15;100413.84;4185255;34;35715;-80
2022/05/26 08:28:58;;;;;;;1.67;1.05;;;;;;;20.44;56.70;100406.81;4186268;34;35662;-79
2022/05/26 08:31:45;;;;;;;2.30;1.27;;;;;;;20.72;53.25;100412.31;4186040;34;35047;-80
2022/05/26 08:34:31;;;;;;;1.02;0.90;;;;;;;20.94;52.72;100405.25;4186004;34;34319;-79
2022/05/26 08:37:21;;;;;;;1.23;1.00;;;;;;;20.79;53.03;100406.13;4186657;34;34331;-79
2022/05/26 08:40:28;;;;;;;2.30;1.02;;;;;;;20.80;53.90;100407.72;4194882;34;35036;-79
2022/05/26 08:43:26;;;;;;;1.65;1.15;;;;;;;21.15;51.48;100406.94;4185968;34;35001;-79
2022/05/26 08:46:17;;;;;;;2.78;1.10;;;;;;;20.90;55.07;100412.75;4185247;34;35525;-79
2022/05/26 08:49:07;;;;;;;;;;;;;;;20.85;53.16;100418.59;4186498;34;34307;-79
2022/05/26 08:51:58;;;;;;;3.28;1.12;;;;;;;21.60;51.04;100408.31;4185530;34;35653;-79
2022/05/26 08:54:47;;;;;;;2.33;1.02;;;;;;;21.89;52.13;100410.53;4193549;34;34893;-78
2022/05/26 08:57:39;;;;;;;1.37;1.00;;;;;;;21.14;51.36;100410.88;4186469;34;34367;-79
2022/05/26 09:00:26;;;;;;;3.15;1.10;;;;;;;21.48;50.54;100406.47;4176518;34;34764;-79
2022/05/26 09:03:30;;;;;;;1.60;0.80;;;;;;;21.96;49.46;100407.03;4185321;34;34979;-79
2022/05/26 09:06:19;;;;;;;3.25;0.95;;;;;;;21.58;49.18;100414.28;4193310;34;34872;-80
2022/05/26 09:15:19;;;;;;;2.62;1.35;;;;;;;21.32;49.60;100412.91;4185303;34;34563;-80
2022/05/26 09:18:19;;;;;;;2.03;0.70;;;;;;;22.11;48.83;100411.72;4186120;34;34576;-80
2022/05/26 09:21:29;;;;;;;1.87;0.73;;;;;;;22.01;46.82;100413.13;4195402;34;34362;-80
2022/05/26 09:24:19;;;;;;;1.80;1.08;;;;;;;22.37;44.68;100413.81;4184930;34;34508;-78
2022/05/26 09:27:30;;;;;;;1.33;0.95;;;;;;;21.81;46.91;100416.31;4195080;34;35203;-78
2022/05/26 09:30:27;;;;;;;1.90;1.02;;;;;;;22.27;45.77;100411.66;4184817;34;34958;-80
2022/05/26 09:33:30;;;;;;;3.40;1.33;;;;;;;22.90;44.36;100408.28;4184069;34;34315;-79
2022/05/26 09:36:30;;;;;;;2.60;0.90;;;;;;;22.40;43.63;100410.28;4183668;34;34308;-80
2022/05/26 09:39:23;;;;;;;2.10;1.02;;;;;;;22.27;44.81;100413.63;4185687;34;34960;-79
2022/05/26 09:42:16;;;;;;;1.90;1.10;;;;;;;22.32;48.12;100399.37;4197316;34;34541;-80
2022/05/26 09:45:06;;;;;;;3.83;1.27;;;;;;;22.25;47.22;100402.81;4187134;34;35008;-80
2022/05/26 09:47:57;;;;;;;2.77;0.83;;;;;;;22.87;46.09;100411.03;4195780;34;34534;-80
2022/05/26 09:51:05;;;;;;;2.58;0.80;;;;;;;23.24;42.86;100402.81;4196763;34;35416;-80
2022/05/26 09:53:54;;;;;;;2.10;0.90;;;;;;;23.17;42.35;100401.91;4186488;34;34951;-81
2022/05/26 09:56:42;;;;;;;0.77;0.77;;;;;;;23.47;41.06;100401.94;4184807;34;34417;-81
2022/05/26 09:59:39;;;;;;;2.55;0.80;;;;;;;23.74;40.61;100397.09;4185947;34;36196;-80
2022/05/26 10:02:40;;;;;;;1.40;0.70;;;;;;;23.67;40.35;100403.37;4188357;34;34597;-81
2022/05/26 10:05:38;;;;;;;3.20;1.12;;;;;;;23.44;38.98;100400.69;4186179;34;34721;-80
2022/05/26 10:08:41;;;;;;;1.10;0.60;;;;;;;23.06;38.17;100407.38;4194950;34;35333;-80
2022/05/26 10:11:46;;;;;;;3.28;0.90;;;;;;;23.78;39.14;100406.31;4186033;34;36252;-80
2022/05/26 10:14:50;;;;;;;1.80;0.70;;;;;;;22.66;41.12;100397.56;4188516;34;36030;-81
2022/05/26 10:17:54;;;;;;;4.25;0.65;;;;;;;22.21;41.57;100407.56;4195564;34;34542;-80
2022/05/26 10:20:52;;;;;;;1.40;0.70;;;;;;;22.85;39.34;100411.44;4186973;34;35236;-80
2022/05/26 10:24:05;;;;;;;1.98;0.50;;;;;;;23.22;37.44;100402.38;4187987;34;34384;-80
2022/05/26 10:27:13;;;;;;;1.15;0.55;;;;;;;23.65;36.88;100400.16;4188043;34;33872;-79
2022/05/26 10:30:21;;;;;;;1.40;0.35;;;;;;;23.66;32.52;100406.56;4186547;34;34951;-80
2022/05/26 10:33:27;;;;;;;1.12;0.50;;;;;;;23.99;34.72;100395.38;4187118;34;34925;-79
2022/05/26 10:36:23;;;;;;;4.37;0.70;;;;;;;24.07;33.32;100401.03;4188089;34;34148;-80
2022/05/26 10:39:19;;;;;;;2.60;0.77;;;;;;;22.94;33.37;100394.41;4177295;34;32667;-80
2022/05/26 10:42:16;;;;;;;1.37;0.60;;;;;;;23.73;33.23;100395.47;4187889;34;34878;-79
2022/05/26 10:45:32;;;;;;;1.60;0.60;;;;;;;23.27;33.19;100399.25;4186893;34;35370;-80
2022/05/26 10:48:44;;;;;;;3.40;0.80;;;;;;;23.64;33.95;100401.34;4195560;34;35648;-79
2022/05/26 10:52:04;;;;;;;2.60;0.52;;;;;;;24.17;34.10;100397.56;4195437;34;36050;-78
2022/05/26 10:54:55;;;;;;;1.62;0.90;;;;;;;24.19;35.54;100401.59;4186552;34;34833;-80
2022/05/26 10:57:47;;;;;;;3.12;0.80;;;;;;;24.08;35.36;100391.44;4178079;34;34275;-79
2022/05/26 11:00:33;;;;;;;3.97;0.90;;;;;;;23.98;34.70;100401.34;4195545;34;35522;-79
2022/05/26 11:03:26;;;;;;;2.78;0.60;;;;;;;23.34;36.08;100393.78;4194983;34;35011;-78
2022/05/26 11:06:20;;;;;;;3.80;0.80;;;;;;;24.00;34.99;100393.37;4187564;34;34982;-80
2022/05/26 11:09:22;;;;;;;3.25;0.80;;;;;;;23.97;35.90;100394.94;4196880;34;34345;-80
2022/05/26 11:12:15;;;;;;;1.67;0.85;;;;;;;23.75;36.59;100399.50;4189198;34;34730;-78
2022/05/26 11:18:26;;;;;;;3.62;0.80;;;;;;;23.51;36.89;100388.81;4195744;34;34253;-79
2022/05/26 11:21:17;;;;;;;3.37;0.82;;;;;;;23.62;37.43;100378.53;4188762;34;34365;-80
2022/05/26 11:24:07;;;;;;;;;;;;;;;24.26;36.34;100377.62;4187009;34;34759;-77
2022/05/26 11:26:58;;;;;;;1.98;0.60;;;;;;;23.88;34.35;100374.03;4195697;34;35753;-80
2022/05/26 11:29:50;;;;;;;1.30;0.80;;;;;;;23.30;35.55;100375.34;4187154;34;34629;-79
2022/05/26 11:36:09;;;;;;;3.12;1.08;;;;;;;24.69;35.87;100362.00;4186167;34;34128;-80
2022/05/26 11:38:56;;;;;;;3.75;0.80;;;;;;;24.41;35.86;100356.94;4194880;34;34580;-80
2022/05/26 11:41:58;;;;;;;2.53;0.80;;;;;;;24.52;35.86;100362.69;4187259;34;34355;-80
2022/05/26 11:45:13;;;;;;;0.80;0.68;;;;;;;24.16;33.97;100360.34;4186540;34;34224;-77
2022/05/26 11:48:07;;;;;;;2.90;0.90;;;;;;;24.55;34.73;100373.09;4195795;34;34703;-81
2022/05/26 11:51:30;;;;;;;2.50;0.60;;;;;;;24.51;34.55;100369.50;4193190;34;34985;-79
2022/05/26 11:54:55;;;;;;;0.50;0.50;;;;;;;24.29;34.04;100369.25;4196488;34;35705;-80
2022/05/26 11:57:41;;;;;;;1.52;0.62;;;;;;;24.16;34.06;100362.34;4187208;34;33256;-78
2022/05/26 12:00:34;;;;;;;1.40;0.57;;;;;;;23.61;35.13;100367.72;4187182;34;34446;-80
2022/05/26 12:03:21;;;;;;;2.05;0.65;;;;;;;23.98;35.32;100356.56;4186505;34;35109;-77
2022/05/26 12:06:11;;;;;;;1.05;0.60;;;;;;;23.71;34.63;100348.31;4187606;34;35778;-79
2022/05/26 12:09:01;;;;;;;1.95;0.60;;;;;;;23.21;35.66;100346.88;4195888;34;35036;-81
2022/05/26 12:11:57;;;;;;;3.53;0.85;;;;;;;24.66;34.32;100341.16;4196517;34;34513;-80
2022/05/26 12:14:47;;;;;;;4.00;0.70;;;;;;;23.71;35.00;100328.72;4195281;34;34954;-78
2022/05/26 12:17:51;;;;;;;1.62;0.82;;;;;;;23.37;35.31;100332.66;4188371;34;33793;-79
2022/05/26 12:20:40;;;;;;;1.55;0.80;;;;;;;23.74;36.05;100329.94;4186538;34;35845;-79
2022/05/26 12:23:27;;;;;;;2.85;0.73;;;;;;;23.31;36.87;100318.25;4185463;34;35607;-81
2022/05/26 12:26:28;;;;;;;3.50;0.68;;;;;;;23.93;36.46;100331.72;4185314;34;36042;-80
2022/05/26 12:29:48;;;;;;;1.85;0.73;;;;;;;24.00;36.02;100323.41;4177407;34;35834;-79
2022/05/26 12:32:37;;;;;;;1.90;0.73;;;;;;;23.96;36.91;100322.56;4186237;34;35114;-83
2022/05/26 12:35:35;;;;;;;2.03;0.52;;;;;;;23.21;35.72;100311.31;4193509;34;34311;-81
2022/05/26 12:38:33;;;;;;;1.50;0.70;;;;;;;23.00;36.48;100314.66;4186336;34;34988;-82
2022/05/26 12:41:31;;;;;;;0.95;0.70;;;;;;;23.51;36.15;100316.09;4185756;34;35172;-80
2022/05/26 12:45:18;;;;;;;2.70;0.70;;;;;;;23.63;36.23;100318.63;4184869;34;35358;-82
2022/05/26 12:48:18;;;;;;;1.87;0.80;;;;;;;23.88;35.63;100324.50;4181851;34;34564;-81
2022/05/26 12:51:08;;;;;;;1.92;0.75;;;;;;;23.68;36.96;100321.06;4173862;34;34694;-82
2022/05/26 12:53:58;;;;;;;3.53;1.00;;;;;;;23.96;35.68;100317.78;4173431;34;35420;-82
2022/05/26 12:56:53;;;;;;;5.15;0.80;;;;;;;23.84;36.47;100306.06;4162292;34;34329;-81
2022/05/26 12:59:39;;;;;;;1.08;0.60;;;;;;;23.48;36.34;100314.84;4169716;34;35560;-82
2022/05/26 13:02:30;;;;;;;3.28;0.85;;;;;;;24.04;36.23;100315.84;4172231;34;34466;-84
2022/05/26 13:05:17;;;;;;;1.77;0.47;;;;;;;24.63;34.38;100308.31;4180851;34;35593;-89
2022/05/26 13:08:04;;;;;;;1.48;0.65;;;;;;;24.89;33.46;100306.47;4169098;34;34879;-85
2022/05/26 13:10:55;;;;;;;1.50;0.60;;;;;;;24.50;35.51;100303.44;4169836;34;35736;-77
2022/05/26 13:13:48;;;;;;;2.45;0.85;;;;;;;25.10;34.12;100292.59;4169952;34;35956;-78
2022/05/26 13:16:39;;;;;;;1.00;0.70;;;;;;;24.50;35.41;100307.03;4163890;34;35477;-78
2022/05/26 13:19:26;;;;;;;4.47;0.80;;;;;;;25.05;33.41;100292.94;4177735;34;33772;-80
2022/05/26 13:22:18;;;;;;;2.05;0.68;;;;;;;25.29;32.85;100293.47;4172816;34;35346;-77
2022/05/26 13:25:14;;;;;;;1.98;0.88;;;;;;;25.07;31.85;100296.16;4172503;34;34924;-76
2022/05/26 13:28:03;;;;;;;3.55;0.80;;;;;;;24.14;33.97;100287.16;4173990;34;34609;-76
2022/05/26 13:33:55;;;;;;;1.73;0.65;;;;;;;23.34;36.55;100283.94;4181070;34;34719;-76
2022/05/26 13:36:44;;;;;;;2.67;0.73;;;;;;;23.96;34.86;100280.56;4182896;34;34763;-77
2022/05/26 13:39:30;;;;;;;3.42;0.70;;;;;;;23.81;35.88;100284.44;4183254;34;35625;-77
2022/05/26 13:42:17;;;;;;;0.45;0.43;;;;;;;23.98;34.06;100275.41;4172800;34;34334;-76
2022/05/26 13:45:05;;;;;;;3.00;0.60;;;;;;;24.13;35.11;100274.31;4170956;34;35591;-76
2022/05/26 13:48:19;;;;;;;1.87;0.70;;;;;;;24.52;34.00;100273.84;4173730;34;34980;-76
2022/05/26 13:51:13;;;;;;;2.42;0.60;;;;;;;24.81;34.69;100262.78;4182374;34;35494;-76
2022/05/26 13:54:23;;;;;;;3.12;1.00;;;;;;;25.26;35.76;100263.41;4174836;34;34461;-76
2022/05/26 13:57:30;;;;;;;1.33;0.80;;;;;;;25.64;34.42;100261.88;4172629;34;34645;-77
2022/05/26 14:00:28;;;;;;;3.78;0.90;;;;;;;26.03;33.08;100261.94;4172972;34;34695;-80